Time;durP1;ratioP1;P1;durP2;ratioP2;P2;SDS_P1;SDS_P2;PMS_P1;PMS_P2;Temp;Humidity;BMP_temperature;BMP_pressure;BME280_temperature;BME280_humidity;BME280_pressure;Samples;Min_cycle;Max_cycle;Signal;HPM_P1;HPM_P2
2022/11/08 00:02:59;;;;;;;;;4.00;4.00;;;;;21.03;55.43;100792.66;105278;1293;19676;-63
2022/11/08 00:13:59;;;;;;;;;2.00;2.00;;;;;21.02;55.69;100787.70;105238;1293;23069;-64
2022/11/08 00:16:27;;;;;;;;;2.00;2.00;;;;;21.02;55.57;100788.24;105130;1293;184079;-63
2022/11/08 00:18:54;;;;;;;;;5.00;2.00;;;;;21.01;55.83;100789.28;105258;1301;18422;-62
2022/11/08 00:21:21;;;;;;;;;1.00;1.00;;;;;21.01;55.69;100789.03;105269;1285;18564;-63
2022/11/08 00:23:49;;;;;;;;;;;;;;;21.01;55.71;100788.33;105276;1284;22247;-62
2022/11/08 00:26:16;;;;;;;;;4.00;4.00;;;;;21.00;55.60;100791.23;105246;1285;20228;-63
2022/11/08 00:28:43;;;;;;;;;2.00;2.00;;;;;21.01;55.53;100795.23;105316;1303;18563;-62
2022/11/08 00:31:10;;;;;;;;;4.00;4.00;;;;;21.01;55.59;100802.32;105711;1294;20763;-62
2022/11/08 00:33:38;;;;;;;;;4.00;2.00;;;;;21.01;55.48;100801.98;105617;1288;18418;-61
2022/11/08 00:36:05;;;;;;;;;4.00;2.00;;;;;21.02;55.50;100801.66;105785;1279;23910;-61
2022/11/08 00:38:32;;;;;;;;;2.00;2.00;;;;;21.03;55.50;100806.09;105725;1287;21185;-63
2022/11/08 00:41:00;;;;;;;;;2.00;2.00;;;;;21.01;55.33;100807.60;105734;1296;18533;-61
2022/11/08 00:43:27;;;;;;;;;2.00;2.00;;;;;21.01;55.57;100808.52;105704;1272;20033;-62
2022/11/08 00:45:54;;;;;;;;;2.00;2.00;;;;;21.00;55.55;100810.73;105704;1271;20714;-63
2022/11/08 00:48:22;;;;;;;;;2.00;2.00;;;;;21.01;55.46;100808.02;105650;1289;18349;-62
2022/11/08 00:50:49;;;;;;;;;4.00;2.00;;;;;21.01;55.63;100808.32;105709;1297;20057;-63
2022/11/08 00:53:16;;;;;;;;;1.50;1.50;;;;;21.00;55.61;100806.58;105641;1281;19276;-63
2022/11/08 00:55:43;;;;;;;;;5.00;4.00;;;;;21.00;55.60;100809.58;105728;1291;20893;-63
2022/11/08 00:58:11;;;;;;;;;4.00;2.00;;;;;21.01;55.52;100807.67;105726;1279;18532;-61
2022/11/08 01:00:38;;;;;;;;;2.00;2.00;;;;;21.01;55.55;100803.61;105774;1287;22756;-61
2022/11/08 01:03:21;;;;;;;;;2.00;2.00;;;;;21.01;55.65;100799.84;105748;1279;18545;-62
2022/11/08 01:05:48;;;;;;;;;4.00;2.00;;;;;20.99;55.64;100797.80;105736;1290;20151;-62
2022/11/08 01:08:15;;;;;;;;;3.00;2.00;;;;;20.99;55.65;100799.70;105662;1279;19310;-63
2022/11/08 01:10:43;;;;;;;;;4.00;2.00;;;;;21.00;55.54;100801.59;105707;1272;18408;-62
2022/11/08 01:13:10;;;;;;;;;3.00;3.00;;;;;21.00;55.47;100797.23;105640;1286;18547;-63
2022/11/08 01:15:39;;;;;;;;;2.00;2.00;;;;;20.99;55.57;100793.98;105597;1288;19301;-63
2022/11/08 01:18:06;;;;;;;;;2.00;2.00;;;;;20.99;55.57;100791.15;105717;1295;19649;-63
2022/11/08 01:20:33;;;;;;;;;2.00;2.00;;;;;20.99;55.54;100794.71;105705;1283;20039;-63
2022/11/08 01:23:01;;;;;;;;;4.00;2.00;;;;;21.00;55.59;100800.50;105732;1295;20845;-63
2022/11/08 01:25:28;;;;;;;;;2.00;2.00;;;;;20.99;55.54;100801.25;105716;1287;18450;-62
2022/11/08 01:27:55;;;;;;;;;2.00;2.00;;;;;20.99;55.59;100798.34;105676;1285;18549;-63
2022/11/08 01:30:23;;;;;;;;;4.00;2.00;;;;;20.99;55.44;100795.82;105731;1272;19286;-63
2022/11/08 01:32:50;;;;;;;;;4.00;4.00;;;;;20.99;55.63;100797.12;105728;1279;21000;-62
2022/11/08 01:35:17;;;;;;;;;2.00;2.00;;;;;20.99;55.43;100798.24;105727;1294;18566;-62
2022/11/08 01:37:45;;;;;;;;;1.00;1.00;;;;;21.00;55.47;100800.15;105720;1297;20861;-63
2022/11/08 01:40:12;;;;;;;;;4.00;2.00;;;;;20.98;55.48;100801.55;105729;1279;19661;-62
2022/11/08 01:42:39;;;;;;;;;2.00;2.00;;;;;20.98;55.38;100801.36;105696;1279;20067;-62
2022/11/08 01:45:06;;;;;;;;;4.00;4.00;;;;;20.99;55.39;100801.89;105697;1278;23774;-62
2022/11/08 01:47:34;;;;;;;;;2.00;2.00;;;;;20.98;55.49;100802.66;105696;1279;18394;-62
2022/11/08 01:50:01;;;;;;;;;4.00;2.00;;;;;20.99;55.39;100800.79;105687;1279;20015;-64
2022/11/08 01:52:28;;;;;;;;;4.00;2.00;;;;;20.99;55.33;100803.34;105707;1271;20971;-62
2022/11/08 01:54:56;;;;;;;;;4.00;2.00;;;;;20.98;55.22;100806.81;105721;1281;19062;-62
2022/11/08 01:57:23;;;;;;;;;2.00;2.00;;;;;20.98;55.30;100806.10;105680;1296;20004;-62
2022/11/08 01:59:50;;;;;;;;;5.00;4.00;;;;;20.97;55.43;100800.59;105757;1289;20679;-63
2022/11/08 02:02:18;;;;;;;;;4.00;2.00;;;;;20.98;55.47;100806.73;105741;1281;19632;-62
2022/11/08 02:04:45;;;;;;;;;4.00;2.00;;;;;20.98;55.41;100798.17;105727;1297;20079;-62
2022/11/08 02:07:13;;;;;;;;;2.00;2.00;;;;;20.97;55.31;100795.69;105704;1272;20821;-63
2022/11/08 02:09:40;;;;;;;;;2.00;2.00;;;;;20.96;55.48;100794.70;105698;1287;18148;-65
2022/11/08 02:12:07;;;;;;;;;;;;;;;20.96;55.41;100789.42;105747;1297;18424;-63
2022/11/08 02:14:35;;;;;;;;;4.00;2.00;;;;;20.97;55.26;100787.92;105704;1288;20083;-63
2022/11/08 02:17:02;;;;;;;;;;;;;;;20.97;55.20;100787.59;105715;1271;18585;-62
2022/11/08 02:19:29;;;;;;;;;1.50;1.50;;;;;20.97;55.16;100791.19;105721;1272;23165;-63
2022/11/08 02:21:56;;;;;;;;;2.00;2.00;;;;;20.97;55.19;100795.18;105729;1287;19295;-62
2022/11/08 02:24:24;;;;;;;;;2.00;2.00;;;;;20.97;55.20;100790.06;105737;1296;18357;-62
2022/11/08 02:26:51;;;;;;;;;4.00;4.00;;;;;20.97;55.30;100788.84;105762;1295;20029;-62
2022/11/08 02:29:18;;;;;;;;;4.50;4.00;;;;;20.96;55.33;100786.74;105673;1271;19264;-61
2022/11/08 02:31:46;;;;;;;;;4.00;4.00;;;;;20.97;55.26;100785.95;105634;1287;18738;-61
2022/11/08 02:37:17;;;;;;;;;4.00;2.00;;;;;20.96;55.26;100782.25;105496;1279;22921;-62
2022/11/08 02:39:45;;;;;;;;;4.00;3.00;;;;;20.96;55.10;100775.70;105751;1279;18426;-62
2022/11/08 02:42:12;;;;;;;;;2.00;2.00;;;;;20.96;55.18;100778.81;105752;1272;23163;-61
2022/11/08 02:44:39;;;;;;;;;2.00;2.00;;;;;20.96;55.27;100780.62;105682;1297;20822;-63
2022/11/08 02:47:07;;;;;;;;;1.50;1.50;;;;;20.95;55.44;100783.75;105749;1288;22360;-63
2022/11/08 02:49:34;;;;;;;;;2.00;2.00;;;;;20.96;55.20;100784.02;105741;1287;20055;-62
2022/11/08 02:52:01;;;;;;;;;2.00;2.00;;;;;20.96;55.21;100784.73;105730;1271;22506;-62
2022/11/08 02:54:29;;;;;;;;;2.00;2.00;;;;;20.96;55.09;100785.68;105720;1271;18552;-62
2022/11/08 02:56:56;;;;;;;;;2.00;2.00;;;;;20.96;55.25;100786.95;105687;1279;18526;-62
2022/11/08 02:59:23;;;;;;;;;2.00;2.00;;;;;20.96;55.06;100791.34;105668;1281;19484;-62
2022/11/08 03:01:51;;;;;;;;;2.00;2.00;;;;;20.95;55.22;100786.34;105700;1286;19656;-62
2022/11/08 03:04:18;;;;;;;;;2.00;2.00;;;;;20.95;55.14;100780.31;105723;1281;18615;-63
2022/11/08 03:06:45;;;;;;;;;2.00;2.00;;;;;20.95;55.11;100780.65;105750;1288;20962;-62
2022/11/08 03:09:13;;;;;;;;;;;;;;;20.95;55.22;100782.15;105710;1282;18571;-63
2022/11/08 03:11:40;;;;;;;;;2.00;2.00;;;;;20.95;55.24;100783.58;105681;1297;19660;-62
2022/11/08 03:14:07;;;;;;;;;4.00;4.00;;;;;20.96;55.03;100782.63;105723;1278;20794;-62
2022/11/08 03:16:35;;;;;;;;;2.00;2.00;;;;;20.95;55.08;100783.27;105760;1281;18423;-62
2022/11/08 03:19:02;;;;;;;;;2.00;2.00;;;;;20.95;55.24;100788.82;105752;1295;19086;-62
2022/11/08 03:21:29;;;;;;;;;2.00;2.00;;;;;20.95;55.09;100785.38;105719;1271;20797;-62
2022/11/08 03:23:56;;;;;;;;;2.00;2.00;;;;;20.96;55.32;100788.41;105740;1297;20603;-62
2022/11/08 03:26:24;;;;;;;;;;;;;;;20.95;55.12;100787.23;105722;1297;18402;-62
2022/11/08 03:28:51;;;;;;;;;2.00;2.00;;;;;20.95;55.13;100789.65;105734;1279;19258;-63
2022/11/08 03:31:18;;;;;;;;;2.00;2.00;;;;;20.95;55.30;100794.17;105694;1280;22476;-63
2022/11/08 03:33:46;;;;;;;;;2.00;2.00;;;;;20.94;55.22;100795.38;105722;1297;22422;-62
2022/11/08 03:36:13;;;;;;;;;1.00;1.00;;;;;20.94;55.13;100797.39;105741;1271;19333;-63
2022/11/08 03:38:40;;;;;;;;;4.00;2.00;;;;;20.94;55.17;100793.74;105759;1281;18476;-62
2022/11/08 03:41:08;;;;;;;;;4.00;4.00;;;;;20.94;55.26;100796.02;105690;1295;18556;-62
2022/11/08 03:43:35;;;;;;;;;2.00;2.00;;;;;20.94;55.16;100796.05;105748;1271;19321;-63
2022/11/08 03:46:02;;;;;;;;;2.00;2.00;;;;;20.94;55.14;100791.35;105757;1271;19673;-63
2022/11/08 03:48:30;;;;;;;;;4.00;2.00;;;;;20.94;55.11;100784.86;105766;1295;19963;-63
2022/11/08 03:50:57;;;;;;;;;2.00;2.00;;;;;20.93;55.31;100783.08;105728;1279;20828;-63
2022/11/08 03:53:24;;;;;;;;;2.00;2.00;;;;;20.93;55.13;100780.02;105673;1271;22229;-62
2022/11/08 03:55:52;;;;;;;;;1.00;1.00;;;;;20.92;55.26;100780.65;105754;1287;20056;-62
2022/11/08 03:58:19;;;;;;;;;3.00;3.00;;;;;20.92;55.17;100783.54;105696;1271;19315;-62
2022/11/08 04:00:46;;;;;;;;;2.00;2.00;;;;;20.92;55.11;100781.40;105760;1296;18386;-63
2022/11/08 04:03:14;;;;;;;;;4.00;2.00;;;;;20.92;55.28;100781.03;105709;1288;18554;-63
2022/11/08 04:05:41;;;;;;;;;4.00;2.00;;;;;20.93;55.13;100780.80;105761;1279;20772;-63
2022/11/08 04:08:08;;;;;;;;;1.00;1.00;;;;;20.92;55.00;100783.56;105685;1297;18400;-62
2022/11/08 04:10:36;;;;;;;;;2.00;2.00;;;;;20.93;55.18;100786.05;105719;1287;19998;-62
2022/11/08 04:15:48;;;;;;;;;4.00;4.00;;;;;20.93;55.14;100786.78;105740;1295;18467;-62
2022/11/08 04:21:20;;;;;;;;;;;;;;;20.93;54.97;100786.23;105687;1278;19448;-61
2022/11/08 04:23:47;;;;;;;;;3.00;2.00;;;;;20.92;55.08;100787.95;105753;1279;19712;-64
2022/11/08 04:26:15;;;;;;;;;2.00;2.00;;;;;20.93;55.16;100785.70;105704;1279;21265;-62
2022/11/08 04:28:42;;;;;;;;;2.00;2.00;;;;;20.92;55.17;100789.58;105748;1288;19313;-62
2022/11/08 04:31:09;;;;;;;;;2.00;2.00;;;;;20.91;55.13;100784.95;105708;1294;18533;-62
2022/11/08 04:33:37;;;;;;;;;2.00;2.00;;;;;20.91;55.07;100786.77;105770;1297;18555;-64
2022/11/08 04:36:04;;;;;;;;;2.00;2.00;;;;;20.92;55.16;100789.98;105731;1297;19259;-60
2022/11/08 04:38:31;;;;;;;;;2.00;2.00;;;;;20.92;55.11;100791.41;105726;1276;22779;-62
2022/11/08 04:40:59;;;;;;;;;3.00;2.00;;;;;20.92;55.02;100789.92;105717;1271;19999;-62
2022/11/08 04:43:26;;;;;;;;;2.00;2.00;;;;;20.91;55.14;100792.23;105685;1287;22003;-63
2022/11/08 04:45:53;;;;;;;;;3.00;3.00;;;;;20.91;55.17;100794.56;105707;1295;18590;-62
2022/11/08 04:48:20;;;;;;;;;1.50;1.50;;;;;20.90;55.03;100797.02;105778;1294;18636;-62
2022/11/08 04:50:48;;;;;;;;;2.00;2.00;;;;;20.92;55.13;100797.00;105746;1297;19309;-62
2022/11/08 04:53:15;;;;;;;;;2.00;2.00;;;;;20.91;55.15;100788.77;105701;1294;18561;-62
2022/11/08 04:55:42;;;;;;;;;2.00;2.00;;;;;20.91;55.06;100795.82;105727;1297;18535;-63
2022/11/08 04:58:10;;;;;;;;;2.00;2.00;;;;;20.91;55.05;100790.94;105719;1288;19362;-63
2022/11/08 05:00:37;;;;;;;;;2.00;2.00;;;;;20.91;54.98;100791.35;105726;1297;21168;-62
2022/11/08 05:03:04;;;;;;;;;3.00;2.00;;;;;20.90;55.12;100791.43;105712;1288;18535;-62
2022/11/08 05:05:32;;;;;;;;;2.00;2.00;;;;;20.90;55.10;100786.77;105693;1271;19285;-62
2022/11/08 05:07:59;;;;;;;;;2.00;2.00;;;;;20.91;55.18;100788.26;105632;1279;19640;-62
2022/11/08 05:10:26;;;;;;;;;2.00;2.00;;;;;20.91;55.07;100788.80;105667;1272;18602;-62
2022/11/08 05:12:54;;;;;;;;;1.00;1.00;;;;;20.90;55.14;100792.72;105722;1297;19270;-62
2022/11/08 05:15:21;;;;;;;;;2.00;2.00;;;;;20.90;55.06;100788.66;105740;1279;18455;-61
2022/11/08 05:17:49;;;;;;;;;4.00;2.00;;;;;20.90;55.11;100795.62;105727;1279;19013;-62
2022/11/08 05:25:46;;;;;;;;;2.00;2.00;;;;;20.89;55.25;100804.11;105693;1297;18486;-63
2022/11/08 05:28:13;;;;;;;;;4.00;2.00;;;;;20.88;55.17;100802.38;105716;1279;21836;-63
2022/11/08 05:30:41;;;;;;;;;2.00;2.00;;;;;20.89;54.97;100806.16;105756;1300;18479;-62
2022/11/08 05:33:08;;;;;;;;;;;;;;;20.89;55.12;100807.24;105704;1286;20033;-63
2022/11/08 05:35:35;;;;;;;;;2.00;2.00;;;;;20.89;55.09;100809.59;105733;1271;19511;-62
2022/11/08 05:38:03;;;;;;;;;2.00;2.00;;;;;20.89;55.25;100812.42;105722;1278;18378;-63
2022/11/08 05:40:30;;;;;;;;;2.00;2.00;;;;;20.90;55.09;100809.32;105672;1287;18582;-62
2022/11/08 05:42:57;;;;;;;;;2.00;2.00;;;;;20.89;55.09;100813.17;105715;1297;19318;-63
2022/11/08 05:45:25;;;;;;;;;1.00;1.00;;;;;20.89;55.22;100815.35;105770;1286;18414;-63
2022/11/08 05:47:53;;;;;;;;;2.00;2.00;;;;;20.88;55.10;100812.53;105752;1279;18492;-63
2022/11/08 05:50:21;;;;;;;;;1.50;1.50;;;;;20.88;55.14;100811.47;105783;1279;20791;-63
2022/11/08 05:52:48;;;;;;;;;1.00;1.00;;;;;20.89;55.33;100811.95;105704;1272;18178;-63
2022/11/08 05:55:15;;;;;;;;;2.00;2.00;;;;;20.89;55.16;100813.23;105725;1288;18379;-63
2022/11/08 05:57:43;;;;;;;;;2.00;2.00;;;;;20.88;55.10;100814.04;105761;1284;22174;-64
2022/11/08 06:00:10;;;;;;;;;2.00;2.00;;;;;20.88;55.26;100812.19;105698;1281;18518;-62
2022/11/08 06:02:37;;;;;;;;;2.00;2.00;;;;;20.88;55.15;100823.63;105762;1279;18669;-63
2022/11/08 06:05:05;;;;;;;;;2.00;2.00;;;;;20.88;55.03;100825.50;105722;1302;22832;-63
2022/11/08 06:07:32;;;;;;;;;4.00;2.00;;;;;20.88;55.08;100829.31;105714;1294;18495;-63
2022/11/08 06:09:59;;;;;;;;;1.00;1.00;;;;;20.87;55.24;100823.91;105682;1280;20071;-63
2022/11/08 06:12:27;;;;;;;;;2.00;2.00;;;;;20.88;55.06;100832.18;105758;1271;19296;-62
2022/11/08 06:14:54;;;;;;;;;2.00;2.00;;;;;20.88;55.07;100833.61;105687;1297;20831;-63
2022/11/08 06:17:21;;;;;;;;;1.00;1.00;;;;;20.87;55.14;100832.64;105727;1281;18549;-64
2022/11/08 06:19:49;;;;;;;;;;;;;;;20.88;55.12;100827.28;105737;1279;19336;-63
2022/11/08 06:22:16;;;;;;;;;2.00;2.00;;;;;20.87;55.08;100826.66;105744;1272;19631;-63
2022/11/08 06:24:43;;;;;;;;;2.00;2.00;;;;;20.88;55.13;100830.41;105773;1288;18555;-63
2022/11/08 06:27:10;;;;;;;;;1.00;1.00;;;;;20.88;55.22;100831.67;105735;1297;19317;-63
2022/11/08 06:29:38;;;;;;;;;2.00;2.00;;;;;20.87;55.17;100833.58;105740;1272;18433;-63
2022/11/08 06:32:05;;;;;;;;;2.00;2.00;;;;;20.87;55.14;100839.95;105724;1279;18529;-63
2022/11/08 06:34:32;;;;;;;;;2.00;2.00;;;;;20.87;55.33;100836.84;105680;1271;20693;-63
2022/11/08 06:37:00;;;;;;;;;2.00;2.00;;;;;20.87;55.36;100833.77;105698;1295;18535;-62
2022/11/08 06:39:27;;;;;;;;;2.00;2.00;;;;;20.89;55.32;100837.52;105739;1291;20066;-63
2022/11/08 06:41:55;;;;;;;;;2.00;2.00;;;;;20.90;55.40;100840.72;105676;1281;21707;-62
2022/11/08 06:44:22;;;;;;;;;2.00;2.00;;;;;20.91;55.42;100836.95;105666;1281;19658;-62
2022/11/08 06:46:49;;;;;;;;;4.00;2.00;;;;;20.92;55.24;100835.77;105628;1279;18790;-62
2022/11/08 06:49:17;;;;;;;;;2.00;2.00;;;;;20.91;55.40;100838.90;105657;1288;22734;-64
2022/11/08 06:51:44;;;;;;;;;2.00;2.00;;;;;20.90;55.82;100831.71;105735;1276;19626;-62
2022/11/08 06:54:11;;;;;;;;;2.00;2.00;;;;;20.90;55.77;100831.08;105675;1297;18503;-61
2022/11/08 06:56:38;;;;;;;;;5.00;4.00;;;;;20.91;56.04;100831.68;105672;1279;20840;-62
2022/11/08 06:59:06;;;;;;;;;4.00;4.00;;;;;20.94;56.21;100835.15;105666;1295;19751;-62
2022/11/08 07:01:33;;;;;;;;;4.00;4.00;;;;;20.95;56.20;100836.68;105740;1279;19939;-63
2022/11/08 07:04:01;;;;;;;;;2.00;2.00;;;;;20.95;56.20;100840.46;105662;1287;20593;-62
2022/11/08 07:06:28;;;;;;;;;4.00;3.00;;;;;20.97;56.26;100838.61;105727;1288;20241;-62
2022/11/08 07:08:55;;;;;;;;;2.00;2.00;;;;;20.98;56.13;100840.83;105699;1287;21112;-62
2022/11/08 07:11:23;;;;;;;;;3.00;3.00;;;;;20.99;56.07;100841.98;105695;1297;19320;-63
2022/11/08 07:13:50;;;;;;;;;4.00;2.00;;;;;20.99;56.13;100843.79;105735;1272;19562;-63
2022/11/08 07:16:17;;;;;;;;;4.00;4.00;;;;;20.99;56.24;100844.91;105736;1297;19254;-63
2022/11/08 07:18:44;;;;;;;;;4.00;4.00;;;;;21.00;56.20;100841.34;105689;1279;19284;-63
2022/11/08 07:21:12;;;;;;;;;2.00;2.00;;;;;21.03;56.09;100842.42;105686;1297;18325;-63
2022/11/08 07:23:39;;;;;;;;;4.00;4.00;;;;;21.07;56.27;100843.08;105681;1288;20035;-63
2022/11/08 07:26:07;;;;;;;;;4.00;4.00;;;;;21.14;56.12;100846.69;105739;1279;20957;-63
2022/11/08 07:28:35;;;;;;;;;4.00;4.00;;;;;21.18;55.78;100844.52;105683;1279;18465;-61
2022/11/08 07:31:02;;;;;;;;;5.00;5.00;;;;;21.23;55.89;100843.23;105699;1288;20012;-63
2022/11/08 07:33:30;;;;;;;;;5.00;5.00;;;;;21.27;55.93;100846.52;105696;1279;24057;-63
2022/11/08 07:35:57;;;;;;;;;4.50;4.50;;;;;21.32;56.03;100842.35;105658;1279;19717;-63
2022/11/08 07:38:25;;;;;;;;;4.50;4.50;;;;;21.37;55.67;100842.70;105696;1271;20184;-63
2022/11/08 07:40:52;;;;;;;;;4.00;4.00;;;;;21.40;55.78;100843.80;105672;1295;20825;-63
2022/11/08 07:43:19;;;;;;;;;5.00;5.00;;;;;21.43;55.81;100849.07;105731;1297;19578;-64
2022/11/08 07:45:48;;;;;;;;;4.00;4.00;;;;;21.47;55.63;100853.38;105757;1297;21738;-64
2022/11/08 07:48:15;;;;;;;;;8.00;8.00;;;;;21.51;55.59;100856.19;105711;1279;19315;-64
2022/11/08 07:50:42;;;;;;;;;9.00;8.00;;;;;21.52;55.56;100851.30;105721;1272;19596;-64
2022/11/08 07:53:10;;;;;;;;;9.00;8.00;;;;;21.52;55.60;100848.27;105672;1279;20040;-63
2022/11/08 07:55:37;;;;;;;;;11.00;8.00;;;;;21.51;55.53;100845.05;105705;1287;19168;-64
2022/11/08 07:58:04;;;;;;;;;5.00;5.00;;;;;21.53;55.46;100842.30;105645;1297;18637;-63
2022/11/08 08:00:32;;;;;;;;;5.50;5.00;;;;;21.55;55.61;100836.96;105740;1282;19172;-65
2022/11/08 08:02:59;;;;;;;;;13.00;11.00;;;;;21.57;55.60;100834.56;105695;1296;19448;-64
2022/11/08 08:05:26;;;;;;;;;12.00;10.00;;;;;21.59;55.43;100837.05;105666;1295;19764;-64
2022/11/08 08:07:53;;;;;;;;;15.00;13.00;;;;;21.52;55.41;100834.77;105688;1274;21367;-65
2022/11/08 08:10:21;;;;;;;;;9.50;9.50;;;;;21.44;55.49;100832.64;105699;1297;19290;-62
2022/11/08 08:12:48;;;;;;;;;14.00;11.00;;;;;21.38;55.56;100837.13;105726;1297;18495;-64
2022/11/08 08:15:15;;;;;;;;;16.00;13.00;;;;;21.40;55.78;100832.96;105721;1281;18611;-64
2022/11/08 08:17:43;;;;;;;;;13.00;12.00;;;;;21.46;55.55;100832.05;105681;1279;22279;-62
2022/11/08 08:20:10;;;;;;;;;12.50;11.00;;;;;21.50;55.21;100833.96;105713;1297;18519;-64
2022/11/08 08:22:37;;;;;;;;;13.00;12.00;;;;;21.53;55.04;100832.70;105690;1287;18467;-63
2022/11/08 08:25:05;;;;;;;;;16.00;15.00;;;;;21.57;54.86;100838.58;105703;1288;21289;-64
2022/11/08 08:27:32;;;;;;;;;16.50;13.50;;;;;21.59;54.86;100842.46;105748;1297;22912;-64
2022/11/08 08:29:59;;;;;;;;;;;;;;;21.63;54.71;100842.81;105749;1279;18757;-64
2022/11/08 08:32:26;;;;;;;;;21.00;19.00;;;;;21.65;54.73;100840.60;105738;1297;19286;-64
2022/11/08 08:34:54;;;;;;;;;20.00;19.00;;;;;21.66;54.51;100838.10;105702;1297;18300;-65
2022/11/08 08:37:21;;;;;;;;;;;;;;;21.66;54.61;100840.62;105653;1271;18612;-64
2022/11/08 08:39:48;;;;;;;;;21.00;19.00;;;;;21.68;54.40;100845.89;105735;1288;20858;-64
2022/11/08 08:42:16;;;;;;;;;21.00;19.00;;;;;21.68;54.40;100847.11;105617;1279;22667;-64
2022/11/08 08:44:43;;;;;;;;;23.00;20.00;;;;;21.68;54.32;100841.48;105519;1295;20097;-64
2022/11/08 08:47:10;;;;;;;;;16.00;16.00;;;;;21.67;54.48;100843.16;105566;1295;22857;-63
2022/11/08 08:49:38;;;;;;;;;19.00;18.50;;;;;21.67;54.39;100840.67;105639;1271;18655;-64
2022/11/08 08:52:05;;;;;;;;;16.50;15.00;;;;;21.68;54.33;100837.63;105591;1297;18696;-64
2022/11/08 08:54:32;;;;;;;;;24.00;16.50;;;;;21.67;54.28;100834.42;105656;1279;19327;-64
2022/11/08 08:57:00;;;;;;;;;20.00;16.00;;;;;21.65;54.20;100837.98;105632;1279;18548;-64
2022/11/08 08:59:28;;;;;;;;;;;;;;;21.64;54.31;100845.77;105668;1279;18945;-64
2022/11/08 09:01:58;;;;;;;;;19.00;17.00;;;;;21.64;54.37;100847.23;105637;1288;20837;-64
2022/11/08 09:04:25;;;;;;;;;17.00;14.00;;;;;21.64;54.42;100847.07;105569;1288;23904;-63
2022/11/08 09:06:53;;;;;;;;;;;;;;;21.63;54.38;100849.83;105630;1300;18708;-63
2022/11/08 09:09:20;;;;;;;;;11.00;10.00;;;;;21.62;54.45;100845.27;105611;1281;23362;-64
2022/11/08 09:11:47;;;;;;;;;14.50;12.50;;;;;21.61;54.56;100846.23;105657;1279;19321;-63
2022/11/08 09:14:14;;;;;;;;;12.00;10.00;;;;;21.60;54.42;100847.10;105590;1295;19979;-64
2022/11/08 09:16:42;;;;;;;;;;;;;;;21.59;54.57;100849.94;105679;1284;20957;-64
2022/11/08 09:19:09;;;;;;;;;9.50;9.50;;;;;21.59;54.38;100851.60;105673;1297;22168;-64
2022/11/08 09:21:36;;;;;;;;;9.50;9.00;;;;;21.60;54.53;100853.13;105685;1295;18557;-64
2022/11/08 09:24:04;;;;;;;;;13.00;10.00;;;;;21.60;54.51;100854.23;105566;1279;20823;-64
2022/11/08 09:26:31;;;;;;;;;12.00;9.00;;;;;21.59;54.41;100858.52;105686;1286;22241;-64
2022/11/08 09:28:58;;;;;;;;;6.00;6.00;;;;;21.58;54.51;100859.31;105635;1287;20668;-62
2022/11/08 09:31:26;;;;;;;;;7.00;7.00;;;;;21.57;54.48;100852.66;105661;1279;22874;-63
2022/11/08 09:33:53;;;;;;;;;8.50;8.50;;;;;21.58;54.37;100858.42;105680;1279;19614;-63
2022/11/08 09:36:20;;;;;;;;;9.00;9.00;;;;;21.57;54.52;100860.16;105620;1281;19906;-63
2022/11/08 09:38:48;;;;;;;;;9.00;8.00;;;;;21.57;54.60;100862.55;105686;1279;19341;-62
2022/11/08 09:41:15;;;;;;;;;6.00;6.00;;;;;21.56;54.49;100861.40;105630;1301;18414;-63
2022/11/08 09:43:42;;;;;;;;;8.50;8.00;;;;;21.56;54.52;100861.16;105589;1289;20135;-63
2022/11/08 09:46:10;;;;;;;;;10.00;10.00;;;;;21.55;54.56;100863.86;105632;1272;19684;-64
2022/11/08 09:48:37;;;;;;;;;9.00;8.50;;;;;21.54;54.57;100864.69;105637;1281;19715;-62
2022/11/08 09:51:04;;;;;;;;;5.00;5.00;;;;;21.54;54.36;100864.05;105666;1301;18857;-62
2022/11/08 09:53:34;;;;;;;;;8.00;6.00;;;;;21.53;54.57;100861.26;105622;1281;20769;-63
2022/11/08 09:56:01;;;;;;;;;5.00;5.00;;;;;21.52;54.64;100855.48;105651;1288;18560;-63
2022/11/08 09:58:28;;;;;;;;;8.00;8.00;;;;;21.51;54.59;100859.21;105650;1289;18514;-62
2022/11/08 10:00:56;;;;;;;;;8.00;6.00;;;;;21.51;54.54;100860.74;105698;1297;21942;-63
2022/11/08 10:03:23;;;;;;;;;5.50;5.00;;;;;21.50;54.47;100856.21;105589;1297;19659;-64
2022/11/08 10:05:50;;;;;;;;;6.00;6.00;;;;;21.49;54.45;100850.53;105629;1288;18558;-63
2022/11/08 10:08:18;;;;;;;;;5.50;5.50;;;;;21.49;54.43;100849.52;105662;1294;19304;-63
2022/11/08 10:10:45;;;;;;;;;6.00;5.00;;;;;21.47;54.51;100851.84;105601;1281;18509;-63
2022/11/08 10:13:12;;;;;;;;;6.00;6.00;;;;;21.47;54.39;100851.70;105593;1279;18558;-63
2022/11/08 10:15:40;;;;;;;;;6.00;6.00;;;;;21.46;54.47;100849.59;105647;1297;19288;-63
2022/11/08 10:18:07;;;;;;;;;5.50;5.00;;;;;21.45;54.32;100841.75;105664;1287;18744;-63
2022/11/08 10:20:35;;;;;;;;;4.50;4.50;;;;;21.44;54.44;100840.23;105623;1290;23818;-63
2022/11/08 10:23:02;;;;;;;;;5.00;5.00;;;;;21.43;54.42;100840.51;105573;1288;20630;-63
2022/11/08 10:25:29;;;;;;;;;5.00;4.50;;;;;21.42;54.32;100837.73;105646;1288;21801;-63
2022/11/08 10:27:57;;;;;;;;;4.00;4.00;;;;;21.42;54.37;100839.42;105682;1279;21362;-63
2022/11/08 10:30:24;;;;;;;;;5.00;5.00;;;;;21.41;54.47;100828.09;105686;1297;19415;-62
2022/11/08 10:32:51;;;;;;;;;5.00;5.00;;;;;21.40;54.53;100825.84;105631;1279;19671;-64
2022/11/08 10:35:19;;;;;;;;;4.00;4.00;;;;;21.39;54.35;100821.03;105620;1295;18762;-64
2022/11/08 10:37:46;;;;;;;;;5.00;5.00;;;;;21.39;54.28;100817.63;105628;1279;19276;-63
2022/11/08 10:40:13;;;;;;;;;5.00;5.00;;;;;21.39;54.27;100819.80;105606;1295;18459;-63
2022/11/08 10:42:41;;;;;;;;;5.00;4.00;;;;;21.38;54.30;100818.95;105645;1288;20175;-63
2022/11/08 10:45:08;;;;;;;;;4.00;4.00;;;;;21.38;54.25;100817.19;105642;1271;19293;-62
2022/11/08 10:47:35;;;;;;;;;6.00;4.50;;;;;21.36;54.13;100817.76;105676;1297;18457;-64
2022/11/08 10:50:02;;;;;;;;;4.00;4.00;;;;;21.35;54.35;100827.63;105628;1286;23241;-64
2022/11/08 10:52:30;;;;;;;;;4.00;4.00;;;;;21.36;54.33;100823.81;105604;1297;20758;-62
2022/11/08 10:54:57;;;;;;;;;4.00;4.00;;;;;21.34;54.33;100823.41;105739;1294;21735;-63
2022/11/08 10:57:24;;;;;;;;;4.00;4.00;;;;;21.34;54.26;100816.56;105616;1279;20399;-62
2022/11/08 10:59:52;;;;;;;;;4.00;4.00;;;;;21.33;54.42;100819.23;105658;1274;20208;-63
2022/11/08 11:02:19;;;;;;;;;4.00;4.00;;;;;21.32;54.40;100821.45;105657;1279;18489;-63
2022/11/08 11:04:46;;;;;;;;;2.00;2.00;;;;;21.31;54.42;100820.13;105619;1287;20098;-63
2022/11/08 11:07:14;;;;;;;;;5.00;4.00;;;;;21.31;54.41;100822.55;105641;1288;19298;-63
2022/11/08 11:09:41;;;;;;;;;4.00;4.00;;;;;21.30;54.62;100823.89;105696;1297;18431;-63
2022/11/08 11:12:08;;;;;;;;;2.00;2.00;;;;;21.30;54.51;100820.08;105647;1294;18546;-63
2022/11/08 11:14:36;;;;;;;;;;;;;;;21.29;54.52;100818.89;105655;1294;19849;-63
2022/11/08 11:17:06;;;;;;;;;2.00;2.00;;;;;21.29;54.38;100817.31;105697;1271;18443;-62
2022/11/08 11:19:33;;;;;;;;;2.00;2.00;;;;;21.28;54.45;100811.15;105714;1292;18511;-63
2022/11/08 11:22:00;;;;;;;;;5.00;4.00;;;;;21.32;54.51;100810.99;105831;1294;22871;-62
2022/11/08 11:24:28;;;;;;;;;4.00;4.00;;;;;21.35;54.47;100809.52;105684;1279;18414;-63
2022/11/08 11:26:55;;;;;;;;;4.00;4.00;;;;;21.35;54.65;100803.67;105709;1279;18652;-65
2022/11/08 11:29:22;;;;;;;;;4.00;3.00;;;;;21.36;54.59;100800.51;105711;1279;19401;-62
2022/11/08 11:31:50;;;;;;;;;6.00;4.50;;;;;21.34;54.49;100795.61;105683;1279;19675;-61
2022/11/08 11:34:17;;;;;;;;;5.00;5.00;;;;;21.33;54.74;100793.73;105744;1269;19019;-65
2022/11/08 11:36:45;;;;;;;;;6.00;5.00;;;;;21.37;54.71;100802.37;105717;1279;20625;-63
2022/11/08 11:39:12;;;;;;;;;;;;;;;21.35;54.71;100800.05;105724;1279;20089;-63
2022/11/08 11:41:40;;;;;;;;;8.00;7.00;;;;;21.30;54.44;100800.02;105757;1272;19651;-62
2022/11/08 11:44:07;;;;;;;;;8.00;8.00;;;;;21.28;54.14;100802.55;105725;1288;19445;-64